createdAt,value
2018-11-10T05:02:08.205Z,34.93
2018-11-10T05:04:36.306Z,32.57
2018-11-10T05:07:04.606Z,33.17
2018-11-10T05:09:33.088Z,36.07
2018-11-10T05:12:01.576Z,31.83
2018-11-10T05:14:30.274Z,32.93
2018-11-10T05:16:58.470Z,31.73
2018-11-10T05:19:26.557Z,33.10
2018-11-10T05:21:54.631Z,39.57
2018-11-10T05:24:22.916Z,36.60
2018-11-10T05:26:51.079Z,36.57
2018-11-10T05:29:19.523Z,36.07
2018-11-10T05:31:47.654Z,37.47
2018-11-10T05:34:16.602Z,33.93
2018-11-10T05:36:44.884Z,30.40
2018-11-10T05:39:13.085Z,31.93
2018-11-10T05:41:41.252Z,29.27
2018-11-10T05:44:09.348Z,32.47
2018-11-10T05:46:37.573Z,33.00
2018-11-10T05:49:05.826Z,32.30
2018-11-10T05:51:34.176Z,33.70
2018-11-10T05:54:02.426Z,33.87
2018-11-10T05:56:30.637Z,36.13
2018-11-10T05:58:58.876Z,32.70
2018-11-10T06:01:27.011Z,31.33
2018-11-10T06:03:55.141Z,33.47
2018-11-10T06:06:23.238Z,30.63
2018-11-10T06:08:51.350Z,30.50
2018-11-10T06:11:19.437Z,28.07
2018-11-10T06:13:47.596Z,28.57
2018-11-10T06:16:16.373Z,28.30
2018-11-10T06:18:44.388Z,28.77
2018-11-10T06:21:12.410Z,32.70
2018-11-10T06:23:40.543Z,26.47
2018-11-10T06:26:08.741Z,23.30
2018-11-10T06:28:36.821Z,27.67
2018-11-10T06:31:05.782Z,28.33
2018-11-10T06:33:34.034Z,28.47
2018-11-10T06:36:02.148Z,30.40
2018-11-10T06:38:30.430Z,30.10
2018-11-10T06:40:58.523Z,29.87
2018-11-10T06:43:26.853Z,34.03
2018-11-10T06:45:54.950Z,33.53
2018-11-10T06:48:23.055Z,30.03
2018-11-10T06:50:51.166Z,29.77
2018-11-10T06:53:19.274Z,35.17
2018-11-10T06:55:47.666Z,34.03
2018-11-10T06:58:15.839Z,31.57
2018-11-10T07:00:44.386Z,31.83
2018-11-10T07:03:12.546Z,28.60
2018-11-10T07:05:40.883Z,28.27
2018-11-10T07:08:09.023Z,30.60
2018-11-10T07:10:37.126Z,26.60
2018-11-10T07:13:05.713Z,33.90
2018-11-10T07:15:33.809Z,27.43
2018-11-10T07:18:01.960Z,28.40
2018-11-10T07:20:30.019Z,33.37
2018-11-10T07:22:58.372Z,32.90
2018-11-10T07:25:26.474Z,20.83
2018-11-10T07:27:54.631Z,25.60
2018-11-10T07:30:22.822Z,25.33
2018-11-10T07:32:51.047Z,27.07
2018-11-10T07:35:19.179Z,28.33
2018-11-10T07:37:47.371Z,27.90
2018-11-10T07:40:15.522Z,27.13
2018-11-10T07:42:43.824Z,25.50
2018-11-10T07:45:15.052Z,31.53
2018-11-10T07:47:44.179Z,31.67
2018-11-10T07:50:12.650Z,28.40
2018-11-10T07:52:41.446Z,28.90
2018-11-10T07:55:10.867Z,26.00
2018-11-10T07:57:39.289Z,27.93
2018-11-10T08:00:12.163Z,25.37
2018-11-10T08:02:40.567Z,26.73
2018-11-10T08:05:09.839Z,26.43
2018-11-10T08:07:38.239Z,25.70
2018-11-10T08:10:06.739Z,29.13
2018-11-10T08:12:35.145Z,31.87
2018-11-10T08:15:03.455Z,29.73
2018-11-10T08:17:31.929Z,25.73
2018-11-10T08:20:00.035Z,28.43
2018-11-10T08:22:28.499Z,30.23
2018-11-10T08:24:57.021Z,32.63
2018-11-10T08:27:25.516Z,31.60
2018-11-10T08:29:53.773Z,26.80
2018-11-10T08:32:22.207Z,29.93
2018-11-10T08:34:50.458Z,29.47
2018-11-10T08:37:18.986Z,34.83
2018-11-10T08:39:48.467Z,27.97
2018-11-10T08:42:16.735Z,29.23
2018-11-10T08:44:45.234Z,32.27
2018-11-10T08:47:13.573Z,28.80
2018-11-10T08:49:42.006Z,28.17
2018-11-10T08:52:10.399Z,32.30
2018-11-10T08:54:39.003Z,26.70
2018-11-10T08:57:07.293Z,24.93
2018-11-10T08:59:35.551Z,21.80
2018-11-10T09:02:03.958Z,23.97
2018-11-10T09:04:32.278Z,25.33
2018-11-10T09:07:00.818Z,31.27
2018-11-10T09:09:29.266Z,29.20
2018-11-10T09:11:58.170Z,27.87
2018-11-10T09:14:26.488Z,27.93
2018-11-10T09:16:54.812Z,28.13
2018-11-10T09:19:23.099Z,29.17
2018-11-10T09:21:51.598Z,27.60
2018-11-10T09:24:20.198Z,27.87
2018-11-10T09:29:25.402Z,35.23
2018-11-10T09:31:53.931Z,28.67
2018-11-10T09:34:22.384Z,32.17
2018-11-10T09:36:50.732Z,32.43
2018-11-10T09:39:19.622Z,35.63
2018-11-10T09:41:48.484Z,32.63
2018-11-10T09:44:16.878Z,33.30
2018-11-10T09:46:44.963Z,34.20
2018-11-10T09:49:13.439Z,35.60
2018-11-10T09:51:41.795Z,35.97
2018-11-10T09:54:09.909Z,36.07
2018-11-10T09:56:38.014Z,35.00
2018-11-10T09:59:06.101Z,34.30
2018-11-10T10:01:34.830Z,40.60
2018-11-10T10:04:03.014Z,37.57
2018-11-10T10:06:31.125Z,35.87
2018-11-10T10:08:59.646Z,37.37
2018-11-10T10:11:27.762Z,36.90
2018-11-10T10:13:56.218Z,41.00
2018-11-10T10:16:24.591Z,35.97
2018-11-10T10:18:52.605Z,36.43
2018-11-10T10:21:20.722Z,39.10
2018-11-10T10:23:50.582Z,39.57
2018-11-10T10:26:18.873Z,42.23
2018-11-10T10:28:47.033Z,38.73
2018-11-10T10:31:15.139Z,39.50
2018-11-10T10:33:43.350Z,37.13
2018-11-10T10:36:11.501Z,32.17
2018-11-10T10:38:39.690Z,41.43
2018-11-10T10:41:07.826Z,38.07
2018-11-10T10:43:36.338Z,44.63
2018-11-10T10:46:04.462Z,37.07
2018-11-10T10:48:32.609Z,35.53
2018-11-10T10:51:01.003Z,38.17
2018-11-10T10:53:29.313Z,43.17
2018-11-10T10:55:57.740Z,36.90
2018-11-10T10:58:26.130Z,40.57
2018-11-10T11:00:59.534Z,37.77
2018-11-10T11:03:33.150Z,37.40
2018-11-10T11:06:02.231Z,46.30
2018-11-10T11:08:30.927Z,41.97
2018-11-10T11:10:59.516Z,40.17
2018-11-10T11:13:27.582Z,45.20
2018-11-10T11:15:55.714Z,55.13
2018-11-10T11:18:23.862Z,37.10
2018-11-10T11:20:52.230Z,42.57
2018-11-10T11:23:20.274Z,45.70
2018-11-10T11:25:48.442Z,37.07
2018-11-10T11:28:16.842Z,43.47
2018-11-10T11:30:45.125Z,41.20
2018-11-10T11:33:13.290Z,36.70
2018-11-10T11:35:41.539Z,41.77
2018-11-10T11:38:09.663Z,38.10
2018-11-10T11:40:37.710Z,33.40
2018-11-10T11:43:06.103Z,37.30
2018-11-10T11:45:34.246Z,42.50
2018-11-10T11:48:02.745Z,36.67
2018-11-10T11:50:30.898Z,38.57
2018-11-10T11:52:59.426Z,32.13
2018-11-10T11:55:27.527Z,32.37
2018-11-10T11:57:55.873Z,43.53
2018-11-10T12:00:23.994Z,38.43
2018-11-10T12:02:52.076Z,36.10
2018-11-10T12:05:20.175Z,33.97
2018-11-10T12:07:48.506Z,32.93
2018-11-10T12:10:17.458Z,28.93
2018-11-10T12:12:45.567Z,40.03
2018-11-10T12:15:15.041Z,36.57
2018-11-10T12:17:43.363Z,33.07
2018-11-10T12:20:13.147Z,29.27
2018-11-10T12:22:41.814Z,35.70
2018-11-10T12:25:11.229Z,32.77
2018-11-10T12:27:39.526Z,31.70
2018-11-10T12:30:08.764Z,27.80
2018-11-10T12:32:36.989Z,28.63
2018-11-10T12:35:06.182Z,30.63
2018-11-10T12:37:34.774Z,27.63
2018-11-10T12:40:03.163Z,24.93
2018-11-10T12:42:31.737Z,25.37
2018-11-10T12:44:59.867Z,30.20
2018-11-10T12:47:28.015Z,23.50
2018-11-10T12:49:56.059Z,28.43
2018-11-10T12:52:24.133Z,23.50
2018-11-10T12:54:52.447Z,23.20
2018-11-10T12:57:20.531Z,23.20
2018-11-10T12:59:48.697Z,24.67
2018-11-10T13:02:16.783Z,23.27
2018-11-10T13:04:44.858Z,24.90
2018-11-10T13:07:13.146Z,20.50
2018-11-10T13:09:41.191Z,22.23
2018-11-10T13:12:09.357Z,19.40
2018-11-10T13:14:37.414Z,23.43
2018-11-10T13:17:05.698Z,26.30
2018-11-10T13:19:33.756Z,22.27
2018-11-10T13:22:01.952Z,24.80
2018-11-10T13:24:30.620Z,27.53
2018-11-10T13:26:58.735Z,24.03
2018-11-10T13:29:26.818Z,19.60
2018-11-10T13:31:54.951Z,24.63
2018-11-10T13:34:23.430Z,26.47
2018-11-10T13:36:51.907Z,22.53
2018-11-10T13:39:20.026Z,26.40
2018-11-10T13:41:48.178Z,28.87
2018-11-10T13:44:16.350Z,22.60
2018-11-10T13:46:44.400Z,30.73
2018-11-10T13:49:12.821Z,23.97
2018-11-10T13:51:41.472Z,29.20
2018-11-10T13:54:09.476Z,28.03
2018-11-10T13:56:37.574Z,26.67
2018-11-10T14:02:08.217Z,20.97
2018-11-10T14:04:36.330Z,25.17
2018-11-10T14:07:04.421Z,31.23
2018-11-10T14:09:32.526Z,26.07
2018-11-10T14:12:00.590Z,27.37
2018-11-10T14:14:28.681Z,25.87
2018-11-10T14:16:56.857Z,25.80
2018-11-10T14:19:24.946Z,25.40
2018-11-10T14:21:53.094Z,29.70
2018-11-10T14:24:21.180Z,27.50
2018-11-10T14:26:49.247Z,26.27
2018-11-10T14:29:17.349Z,28.00
2018-11-10T14:31:45.409Z,25.03
2018-11-10T14:34:13.607Z,25.93
2018-11-10T14:36:41.802Z,22.70
2018-11-10T14:39:11.046Z,23.50
2018-11-10T14:41:39.241Z,23.47
2018-11-10T14:44:07.917Z,22.03
2018-11-10T14:46:36.547Z,25.00
2018-11-10T14:49:05.203Z,23.83
2018-11-10T14:51:33.301Z,23.63
2018-11-10T14:54:01.386Z,21.37
2018-11-10T14:56:29.470Z,26.90
2018-11-10T14:58:57.589Z,23.87
2018-11-10T15:01:25.766Z,23.03
2018-11-10T15:03:53.853Z,22.73
2018-11-10T15:06:21.984Z,26.90
2018-11-10T15:08:50.096Z,23.10
2018-11-10T15:11:18.266Z,24.90
2018-11-10T15:13:46.377Z,26.40
2018-11-10T15:16:14.471Z,22.13
2018-11-10T15:18:42.596Z,28.63
2018-11-10T15:21:10.751Z,28.33
2018-11-10T15:23:38.871Z,25.40
2018-11-10T15:26:07.005Z,26.43
2018-11-10T15:28:35.150Z,26.60
2018-11-10T15:31:03.261Z,23.40
2018-11-10T15:33:31.410Z,25.83
2018-11-10T15:35:59.536Z,26.50
2018-11-10T15:38:27.722Z,20.63
2018-11-10T15:40:55.839Z,23.17
2018-11-10T15:43:23.962Z,20.27
2018-11-10T15:45:52.062Z,21.40
2018-11-10T15:48:20.166Z,22.90
2018-11-10T15:50:48.282Z,24.00
2018-11-10T15:53:16.386Z,20.43
2018-11-10T15:55:44.573Z,21.80
2018-11-10T15:58:12.730Z,18.50
2018-11-10T16:00:40.841Z,21.00
2018-11-10T16:03:09.019Z,19.30
2018-11-10T16:05:37.135Z,21.53
2018-11-10T16:08:05.610Z,18.17
2018-11-10T16:10:33.746Z,22.40
2018-11-10T16:13:01.850Z,20.60
2018-11-10T16:15:29.934Z,19.13
2018-11-10T16:17:58.030Z,19.70
2018-11-10T16:20:26.122Z,17.50
2018-11-10T16:22:54.217Z,19.53
2018-11-10T16:25:23.415Z,18.67
2018-11-10T16:27:51.584Z,16.90
2018-11-10T16:30:20.110Z,18.43
2018-11-10T16:32:48.890Z,15.27
2018-11-10T16:35:17.042Z,22.87
2018-11-10T16:37:45.170Z,18.60
2018-11-10T16:40:15.164Z,17.90
2018-11-10T16:42:44.383Z,18.50
2018-11-10T16:45:12.921Z,19.33
2018-11-10T16:47:41.053Z,15.60
2018-11-10T16:50:09.905Z,15.57
2018-11-10T16:52:38.064Z,18.53
2018-11-10T16:55:06.464Z,15.83
2018-11-10T16:57:34.538Z,15.43
2018-11-10T17:00:02.650Z,15.73
2018-11-10T17:02:31.111Z,17.47
2018-11-10T17:04:59.202Z,17.30
2018-11-10T17:07:27.334Z,15.27
2018-11-10T17:09:55.420Z,18.10
2018-11-10T17:12:23.558Z,18.30
2018-11-10T17:14:51.651Z,20.87
2018-11-10T17:17:19.732Z,17.50
2018-11-10T17:19:47.817Z,15.43
2018-11-10T17:22:16.079Z,21.50
2018-11-10T17:24:44.071Z,18.83
2018-11-10T17:27:12.245Z,26.43
2018-11-10T17:29:40.341Z,16.57
2018-11-10T17:32:08.430Z,17.83
2018-11-10T17:34:36.618Z,19.13
2018-11-10T17:37:04.710Z,17.13
2018-11-10T17:39:32.968Z,18.97
2018-11-10T17:42:01.092Z,18.80
2018-11-10T17:44:29.153Z,20.43
2018-11-10T17:46:57.324Z,14.87
2018-11-10T17:49:25.468Z,17.37
2018-11-10T17:51:53.584Z,16.40
2018-11-10T17:54:21.679Z,17.30
2018-11-10T17:56:49.742Z,15.63
2018-11-10T17:59:17.841Z,17.47
2018-11-10T18:01:45.993Z,15.87
2018-11-10T18:04:14.071Z,18.60
2018-11-10T18:06:42.176Z,16.30
2018-11-10T18:09:11.595Z,14.77
2018-11-10T18:11:40.080Z,18.80
2018-11-10T18:14:08.462Z,16.40
2018-11-10T18:16:36.551Z,18.37
2018-11-10T18:19:04.730Z,16.40
2018-11-10T18:21:32.740Z,15.90
2018-11-10T18:24:00.882Z,15.70
2018-11-10T18:26:28.967Z,14.17
2018-11-10T18:28:57.056Z,14.27
2018-11-10T18:31:25.150Z,13.27
2018-11-10T18:33:53.245Z,16.30
2018-11-10T18:36:21.502Z,15.03
2018-11-10T18:38:49.594Z,12.83
2018-11-10T18:41:17.710Z,11.97
2018-11-10T18:43:45.819Z,15.33
2018-11-10T18:46:13.929Z,17.83
2018-11-10T18:48:43.011Z,21.43
2018-11-10T18:51:11.086Z,17.27
2018-11-10T18:53:39.526Z,15.17
2018-11-10T18:56:08.067Z,14.70
2018-11-10T18:58:36.176Z,15.90
2018-11-10T19:01:04.314Z,16.10
2018-11-10T19:03:33.129Z,17.07
2018-11-10T19:06:01.339Z,22.13
2018-11-10T19:08:29.415Z,19.63
2018-11-10T19:10:57.561Z,15.00
2018-11-10T19:13:25.682Z,14.17
2018-11-10T19:15:53.771Z,15.07
2018-11-10T19:18:21.986Z,15.27
2018-11-10T19:20:50.069Z,16.53
2018-11-10T19:23:18.226Z,13.00
2018-11-10T19:25:46.326Z,15.23
2018-11-10T19:28:14.426Z,14.40
2018-11-10T19:30:42.523Z,17.13
2018-11-10T19:33:10.622Z,12.37
2018-11-10T19:35:39.344Z,14.90
2018-11-10T19:38:07.578Z,14.90
2018-11-10T19:40:35.731Z,14.67
2018-11-10T19:43:12.631Z,11.50
2018-11-10T19:45:46.938Z,15.13
2018-11-10T19:48:15.093Z,13.30
2018-11-10T19:50:43.247Z,13.40
2018-11-10T19:53:22.105Z,14.83
2018-11-10T19:55:52.966Z,14.07
2018-11-10T19:58:36.201Z,18.83
2018-11-10T20:01:05.023Z,15.33
2018-11-10T20:03:50.756Z,18.57
2018-11-10T20:06:23.343Z,13.13
2018-11-10T20:08:57.048Z,16.20
2018-11-10T20:11:28.287Z,19.37
2018-11-10T20:14:02.085Z,20.20
2018-11-10T20:16:35.489Z,15.20
2018-11-10T20:19:08.024Z,12.00
2018-11-10T20:21:39.725Z,13.57
2018-11-10T20:24:07.999Z,13.77
2018-11-10T20:26:45.529Z,13.10
2018-11-10T20:29:16.379Z,9.17
2018-11-10T20:31:44.467Z,14.00
2018-11-10T20:34:12.769Z,14.77
2018-11-10T20:36:40.939Z,14.37
2018-11-10T20:39:10.157Z,14.97
2018-11-10T20:41:39.858Z,12.20
2018-11-10T20:44:08.703Z,12.93
2018-11-10T20:46:36.795Z,11.90
2018-11-10T20:49:06.661Z,8.73
2018-11-10T20:51:36.171Z,14.37
2018-11-10T20:54:04.360Z,13.33
2018-11-10T20:56:33.845Z,11.40
2018-11-10T20:59:09.577Z,9.87
2018-11-10T21:01:38.794Z,9.53
2018-11-10T21:04:08.098Z,11.43
2018-11-10T21:06:36.260Z,12.03
2018-11-10T21:09:16.257Z,10.20
2018-11-10T21:11:45.408Z,11.43
2018-11-10T21:14:15.000Z,8.17
2018-11-10T21:16:49.859Z,13.70
2018-11-10T21:19:22.231Z,7.73
2018-11-10T21:21:50.930Z,7.50
2018-11-10T21:24:19.986Z,6.20
2018-11-10T21:26:56.485Z,9.83
2018-11-10T21:29:34.340Z,6.30
2018-11-10T21:32:02.615Z,6.20
2018-11-10T21:34:39.521Z,8.60
2018-11-10T21:37:12.113Z,6.43
2018-11-10T21:39:40.314Z,5.83
2018-11-10T21:42:08.437Z,7.73
2018-11-10T21:44:36.725Z,5.90
2018-11-10T21:47:05.158Z,8.07
2018-11-10T21:49:33.589Z,4.30
2018-11-10T21:52:01.939Z,7.27
2018-11-10T21:54:30.049Z,4.33
2018-11-10T21:57:04.457Z,4.73
2018-11-10T21:59:45.768Z,4.80
